createdAt,value
2022-09-23T00:00:47.579Z,3.58
2022-09-23T00:03:15.615Z,4.00
2022-09-23T00:05:42.910Z,4.07
2022-09-23T00:08:11.879Z,3.20
2022-09-23T00:10:40.259Z,3.10
2022-09-23T00:13:07.143Z,2.70
2022-09-23T00:15:39.938Z,2.83
2022-09-23T00:18:06.734Z,4.13
2022-09-23T00:20:34.999Z,3.38
2022-09-23T00:23:02.877Z,2.88
2022-09-23T00:25:29.760Z,3.22
2022-09-23T00:27:57.248Z,4.32
2022-09-23T00:30:24.178Z,4.17
2022-09-23T00:32:50.940Z,3.08
2022-09-23T00:35:17.722Z,3.03
2022-09-23T00:37:44.524Z,3.83
2022-09-23T00:40:11.494Z,2.95
2022-09-23T00:42:38.322Z,3.40
2022-09-23T00:45:05.389Z,2.97
2022-09-23T00:47:45.059Z,3.90
2022-09-23T00:50:21.089Z,2.72
2022-09-23T00:52:50.849Z,2.58
2022-09-23T00:55:42.453Z,3.73
2022-09-23T00:58:12.201Z,2.78
2022-09-23T01:00:39.164Z,3.35
2022-09-23T01:03:07.256Z,2.95
2022-09-23T01:05:34.463Z,2.58
2022-09-23T01:08:03.851Z,2.87
2022-09-23T01:10:40.643Z,2.42
2022-09-23T01:13:24.403Z,2.67
2022-09-23T01:16:14.426Z,2.72
2022-09-23T01:18:50.356Z,3.88
2022-09-23T01:22:13.811Z,3.20
2022-09-23T01:25:19.278Z,2.33
2022-09-23T01:28:15.186Z,3.85
2022-09-23T01:30:48.315Z,3.65
2022-09-23T01:33:42.566Z,3.08
2022-09-23T01:36:30.120Z,2.97
2022-09-23T01:39:35.057Z,3.30
2022-09-23T01:42:16.365Z,3.45
2022-09-23T01:44:49.943Z,2.22
2022-09-23T01:47:28.555Z,2.47
2022-09-23T01:50:08.838Z,2.33
2022-09-23T01:52:47.070Z,3.15
2022-09-23T01:55:22.537Z,3.05
2022-09-23T01:58:27.757Z,2.95
2022-09-23T02:01:03.561Z,2.10
2022-09-23T02:03:58.755Z,1.70
2022-09-23T02:06:55.878Z,2.42
2022-09-23T02:09:28.286Z,2.88
2022-09-23T02:12:00.546Z,2.90
2022-09-23T02:14:46.319Z,2.10
2022-09-23T02:17:23.107Z,2.57
2022-09-23T02:20:02.191Z,2.42
2022-09-23T02:23:07.608Z,3.00
2022-09-23T02:25:59.256Z,2.53
2022-09-23T02:28:49.829Z,2.00
2022-09-23T02:31:43.693Z,3.00
2022-09-23T02:34:39.439Z,2.50
2022-09-23T02:37:21.161Z,2.78
2022-09-23T02:40:02.970Z,2.38
2022-09-23T02:42:50.029Z,3.53
2022-09-23T02:45:18.578Z,2.50
2022-09-23T02:47:51.989Z,2.83
2022-09-23T02:50:19.381Z,3.20
2022-09-23T02:52:46.751Z,3.13
2022-09-23T02:55:17.881Z,2.30
2022-09-23T02:57:45.925Z,2.20
2022-09-23T03:00:13.396Z,2.53
2022-09-23T03:02:49.055Z,2.30
2022-09-23T03:05:25.081Z,2.53
2022-09-23T03:07:51.739Z,2.22
2022-09-23T03:10:48.713Z,2.17
2022-09-23T03:13:35.772Z,3.47
2022-09-23T03:16:11.311Z,2.33
2022-09-23T03:18:48.722Z,2.97
2022-09-23T03:21:31.911Z,2.20
2022-09-23T03:24:02.795Z,2.20
2022-09-23T03:26:36.294Z,2.97
2022-09-23T03:29:09.833Z,3.30
2022-09-23T03:31:38.307Z,2.10
2022-09-23T03:34:16.348Z,2.53
2022-09-23T03:37:03.284Z,2.10
2022-09-23T03:39:44.404Z,2.53
2022-09-23T03:42:17.192Z,3.03
2022-09-23T03:44:46.646Z,3.47
2022-09-23T03:47:15.429Z,2.53
2022-09-23T03:49:46.386Z,2.43
2022-09-23T03:52:13.156Z,3.20
2022-09-23T03:54:39.838Z,2.30
2022-09-23T03:57:06.948Z,3.20
2022-09-23T03:59:34.149Z,2.47
2022-09-23T04:02:01.284Z,4.23
2022-09-23T04:04:28.736Z,2.60
2022-09-23T04:06:56.551Z,3.28
2022-09-23T04:09:23.539Z,2.97
2022-09-23T04:11:54.097Z,2.55
2022-09-23T04:14:22.137Z,4.17
2022-09-23T04:16:50.205Z,3.42
2022-09-23T04:19:18.087Z,2.92
2022-09-23T04:21:45.608Z,2.53
2022-09-23T04:24:13.988Z,2.30
2022-09-23T04:26:41.726Z,3.40
2022-09-23T04:29:08.836Z,2.28
2022-09-23T04:31:35.721Z,4.82
2022-09-23T04:34:02.817Z,2.90
2022-09-23T04:36:29.732Z,3.30
2022-09-23T04:38:56.839Z,3.20
2022-09-23T04:41:23.721Z,3.80
2022-09-23T04:43:50.497Z,2.45
2022-09-23T04:46:17.389Z,3.17
2022-09-23T04:48:44.759Z,3.60
2022-09-23T04:51:19.272Z,3.87
2022-09-23T04:53:48.181Z,3.75
2022-09-23T04:56:17.778Z,6.20
2022-09-23T04:58:45.231Z,3.70
2022-09-23T05:01:14.461Z,3.92
2022-09-23T05:03:42.482Z,3.20
2022-09-23T05:06:10.720Z,2.60
2022-09-23T05:08:37.524Z,3.40
2022-09-23T05:11:05.294Z,3.63
2022-09-23T05:13:32.411Z,2.75
2022-09-23T05:16:00.374Z,3.33
2022-09-23T05:18:34.483Z,4.28
2022-09-23T05:21:02.126Z,3.30
2022-09-23T05:23:30.245Z,2.80
2022-09-23T05:25:59.639Z,3.25
2022-09-23T05:28:27.814Z,4.40
2022-09-23T05:31:00.993Z,3.83
2022-09-23T05:33:28.086Z,2.97
2022-09-23T05:35:54.823Z,4.25
2022-09-23T05:38:21.599Z,3.20
2022-09-23T05:40:58.454Z,5.70
2022-09-23T05:43:26.065Z,4.90
2022-09-23T05:46:03.022Z,5.45
2022-09-23T05:48:32.846Z,5.32
2022-09-23T05:51:00.742Z,5.28
2022-09-23T05:53:28.773Z,6.73
2022-09-23T05:55:58.677Z,4.70
2022-09-23T05:58:25.635Z,4.90
2022-09-23T06:00:52.622Z,4.75
2022-09-23T06:03:20.576Z,6.30
2022-09-23T06:05:47.806Z,5.93
2022-09-23T06:08:15.069Z,6.88
2022-09-23T06:10:44.339Z,5.55
2022-09-23T06:13:11.846Z,5.47
2022-09-23T06:15:39.607Z,9.48
2022-09-23T06:18:07.459Z,6.17
2022-09-23T06:20:34.704Z,5.25
2022-09-23T06:23:10.896Z,4.53
2022-09-23T06:25:38.411Z,4.75
2022-09-23T06:28:05.317Z,6.63
2022-09-23T06:30:32.179Z,6.67
2022-09-23T06:32:59.122Z,7.15
2022-09-23T06:35:27.839Z,6.68
2022-09-23T06:37:55.322Z,9.70
2022-09-23T06:40:23.838Z,6.53
2022-09-23T06:42:58.449Z,4.23
2022-09-23T06:45:25.992Z,4.25
2022-09-23T06:47:57.899Z,4.22
2022-09-23T06:50:27.919Z,4.35
2022-09-23T06:52:55.642Z,5.97
2022-09-23T06:55:26.640Z,6.97
2022-09-23T06:57:55.711Z,13.10
2022-09-23T07:00:22.546Z,12.07
2022-09-23T07:02:49.431Z,6.95
2022-09-23T07:05:16.889Z,6.72
2022-09-23T07:07:46.573Z,8.63
2022-09-23T07:10:13.350Z,6.22
2022-09-23T07:12:41.007Z,7.43
2022-09-23T07:15:08.789Z,7.85
2022-09-23T07:17:35.573Z,5.43
2022-09-23T07:20:02.950Z,4.77
2022-09-23T07:22:29.753Z,5.18
2022-09-23T07:24:56.516Z,6.15
2022-09-23T07:27:27.849Z,4.35
2022-09-23T07:29:54.674Z,5.38
2022-09-23T07:32:22.845Z,6.17
2022-09-23T07:34:50.226Z,5.25
2022-09-23T07:37:18.318Z,5.85
2022-09-23T07:39:45.779Z,8.40
2022-09-23T07:42:12.617Z,8.32
2022-09-23T07:44:40.425Z,6.07
2022-09-23T07:47:07.329Z,5.45
2022-09-23T07:49:35.597Z,5.40
2022-09-23T07:52:03.464Z,6.05
2022-09-23T07:54:30.224Z,5.32
2022-09-23T07:56:57.358Z,6.67
2022-09-23T07:59:24.256Z,6.28
2022-09-23T08:01:52.844Z,5.50
2022-09-23T08:04:24.118Z,6.72
2022-09-23T08:07:02.723Z,4.93
2022-09-23T08:09:33.562Z,5.23
2022-09-23T08:12:00.610Z,5.18
2022-09-23T08:14:27.407Z,4.05
2022-09-23T08:16:54.222Z,7.68
2022-09-23T08:19:21.092Z,4.72
2022-09-23T08:21:48.018Z,5.53
2022-09-23T08:24:18.151Z,3.90
2022-09-23T08:26:46.641Z,4.28
2022-09-23T08:29:16.255Z,5.35
2022-09-23T08:31:43.573Z,4.32
2022-09-23T08:34:11.021Z,4.27
2022-09-23T08:36:37.841Z,3.97
2022-09-23T08:39:06.165Z,3.55
2022-09-23T08:41:45.073Z,4.30
2022-09-23T08:44:28.133Z,5.20
2022-09-23T08:47:09.374Z,4.63
2022-09-23T08:49:58.591Z,3.10
2022-09-23T08:53:05.613Z,4.07
2022-09-23T08:55:59.765Z,5.43
2022-09-23T08:58:49.525Z,5.55
2022-09-23T09:01:34.427Z,4.90
2022-09-23T09:04:23.177Z,4.00
2022-09-23T09:07:34.782Z,3.83
2022-09-23T09:10:18.814Z,3.70
2022-09-23T09:12:49.172Z,4.30
2022-09-23T09:15:24.676Z,5.40
2022-09-23T09:18:13.165Z,3.53
2022-09-23T09:20:59.716Z,4.47
2022-09-23T09:23:29.286Z,3.63
2022-09-23T09:26:01.262Z,3.30
2022-09-23T09:28:37.456Z,4.97
2022-09-23T09:31:27.589Z,3.83
2022-09-23T09:34:11.179Z,3.03
2022-09-23T09:37:00.429Z,3.83
2022-09-23T09:39:29.079Z,3.45
2022-09-23T09:41:55.896Z,3.25
2022-09-23T09:44:44.338Z,3.05
2022-09-23T09:47:17.260Z,4.97
2022-09-23T09:49:54.058Z,2.83
2022-09-23T09:52:26.230Z,2.92
2022-09-23T09:54:53.182Z,3.33
2022-09-23T09:57:45.874Z,4.30
2022-09-23T10:00:21.816Z,2.95
2022-09-23T10:02:57.652Z,3.45
2022-09-23T10:05:31.914Z,3.90
2022-09-23T10:08:26.684Z,3.80
2022-09-23T10:10:59.639Z,3.80
2022-09-23T10:13:27.841Z,3.65
2022-09-23T10:15:55.469Z,3.33
2022-09-23T10:18:47.154Z,4.13
2022-09-23T10:21:17.102Z,3.63
2022-09-23T10:23:56.012Z,3.47
2022-09-23T10:26:34.051Z,4.15
2022-09-23T10:29:19.395Z,4.25
2022-09-23T10:31:46.225Z,3.50
2022-09-23T10:34:28.947Z,3.42
2022-09-23T10:37:03.488Z,3.83
2022-09-23T10:39:30.309Z,3.50
2022-09-23T10:42:15.657Z,3.33
2022-09-23T10:45:01.556Z,5.05
2022-09-23T10:47:51.125Z,4.07
2022-09-23T10:50:35.544Z,2.85
2022-09-23T10:53:23.988Z,3.75
2022-09-23T10:55:50.701Z,4.07
2022-09-23T10:58:17.328Z,3.90
2022-09-23T11:00:47.291Z,3.63
2022-09-23T11:03:50.388Z,3.80
2022-09-23T11:06:56.252Z,2.83
2022-09-23T11:09:41.492Z,3.78
2022-09-23T11:12:33.765Z,4.82
2022-09-23T11:15:06.226Z,3.70
2022-09-23T11:18:06.589Z,3.00
2022-09-23T11:20:39.631Z,3.45
2022-09-23T11:23:24.680Z,2.50
2022-09-23T11:26:10.607Z,3.33
2022-09-23T11:28:52.235Z,3.42
2022-09-23T11:31:43.217Z,3.65
2022-09-23T11:34:31.385Z,2.78
2022-09-23T11:37:08.456Z,3.08
2022-09-23T11:39:42.828Z,4.60
2022-09-23T11:42:20.180Z,1.85
2022-09-23T11:44:58.410Z,3.25
2022-09-23T11:47:39.738Z,2.20
2022-09-23T11:50:36.551Z,2.50
2022-09-23T11:53:20.360Z,2.40
2022-09-23T11:56:07.636Z,2.05
2022-09-23T11:58:51.118Z,2.30
2022-09-23T12:01:37.698Z,2.13
2022-09-23T12:04:17.791Z,2.97
2022-09-23T12:06:53.327Z,2.47
2022-09-23T12:09:57.865Z,5.45
2022-09-23T12:13:00.408Z,2.60
2022-09-23T12:15:56.178Z,1.90
2022-09-23T12:18:38.889Z,1.92
2022-09-23T12:21:32.788Z,3.45
2022-09-23T12:24:37.559Z,2.22
2022-09-23T12:27:09.201Z,1.77
2022-09-23T12:29:38.475Z,1.70
2022-09-23T12:32:05.485Z,1.77
2022-09-23T12:34:42.777Z,1.90
2022-09-23T12:37:09.911Z,1.83
2022-09-23T12:39:38.698Z,2.17
2022-09-23T12:42:15.502Z,2.60
2022-09-23T12:44:45.004Z,2.05
2022-09-23T12:47:14.493Z,2.70
2022-09-23T12:49:43.253Z,2.30
2022-09-23T12:52:13.592Z,1.90
2022-09-23T12:54:41.907Z,1.85
2022-09-23T12:57:34.912Z,2.65
2022-09-23T13:00:07.829Z,2.38
2022-09-23T13:02:39.072Z,2.55
2022-09-23T13:05:08.709Z,1.95
2022-09-23T13:07:40.849Z,3.17
2022-09-23T13:10:39.991Z,3.38
2022-09-23T13:13:18.213Z,2.10
2022-09-23T13:15:45.656Z,1.60
2022-09-23T13:18:21.610Z,2.03
2022-09-23T13:20:55.701Z,1.60
2022-09-23T13:23:27.980Z,1.85
2022-09-23T13:25:59.383Z,1.67
2022-09-23T13:28:32.193Z,1.70
2022-09-23T13:31:02.487Z,1.70
2022-09-23T13:33:51.785Z,2.10
2022-09-23T13:36:20.164Z,1.38
2022-09-23T13:38:47.060Z,2.22
2022-09-23T13:41:15.484Z,1.80
2022-09-23T13:43:49.703Z,1.67
2022-09-23T13:46:27.357Z,2.85
2022-09-23T13:48:55.620Z,1.40
2022-09-23T13:51:33.077Z,1.55
2022-09-23T13:54:03.410Z,1.42
2022-09-23T13:56:32.538Z,2.28
2022-09-23T13:59:31.835Z,2.45
2022-09-23T14:02:12.482Z,3.28
2022-09-23T14:04:39.872Z,2.08
2022-09-23T14:07:13.222Z,3.53
2022-09-23T14:09:45.192Z,2.90
2022-09-23T14:12:12.333Z,2.72
2022-09-23T14:14:41.066Z,2.85
2022-09-23T14:17:09.022Z,3.10
2022-09-23T14:19:37.086Z,3.20
2022-09-23T14:22:05.637Z,2.67
2022-09-23T14:24:36.794Z,1.70
2022-09-23T14:27:06.566Z,2.95
2022-09-23T14:29:37.061Z,2.20
2022-09-23T14:32:20.800Z,3.83
2022-09-23T14:35:06.176Z,3.03
2022-09-23T14:37:39.071Z,4.15
2022-09-23T14:40:12.472Z,2.42
2022-09-23T14:42:43.841Z,2.35
2022-09-23T14:45:16.033Z,3.65
2022-09-23T14:47:52.263Z,4.13
2022-09-23T14:50:25.594Z,2.92
2022-09-23T14:52:52.625Z,4.35
2022-09-23T14:55:19.546Z,4.40
2022-09-23T14:57:46.285Z,2.80
2022-09-23T15:00:17.515Z,3.15
2022-09-23T15:03:02.742Z,3.67
2022-09-23T15:05:45.838Z,4.80
2022-09-23T15:08:18.876Z,3.33
2022-09-23T15:10:46.251Z,4.57
2022-09-23T15:13:18.010Z,2.60
2022-09-23T15:15:45.296Z,3.15
2022-09-23T15:18:23.217Z,3.03
2022-09-23T15:20:52.460Z,3.65
2022-09-23T15:23:52.720Z,2.10
2022-09-23T15:26:25.640Z,3.03
2022-09-23T15:28:56.087Z,3.38
2022-09-23T15:31:24.146Z,2.80
2022-09-23T15:33:51.448Z,2.20
2022-09-23T15:36:24.594Z,2.20
2022-09-23T15:38:51.954Z,1.83
2022-09-23T15:41:19.033Z,2.72
2022-09-23T15:43:45.914Z,2.38
2022-09-23T15:46:21.895Z,1.55
2022-09-23T15:49:05.294Z,2.47
2022-09-23T15:51:32.309Z,1.02
2022-09-23T15:53:59.055Z,1.90
2022-09-23T15:56:25.944Z,1.00
2022-09-23T15:58:52.843Z,2.80
2022-09-23T16:01:28.256Z,2.40
2022-09-23T16:03:55.247Z,1.67
2022-09-23T16:06:22.348Z,1.67
2022-09-23T16:08:49.219Z,2.85
2022-09-23T16:11:22.151Z,1.27
2022-09-23T16:13:48.901Z,1.75
2022-09-23T16:16:15.911Z,2.40
2022-09-23T16:18:43.041Z,1.80
2022-09-23T16:21:12.961Z,2.78
2022-09-23T16:23:43.741Z,2.25
2022-09-23T16:26:10.495Z,4.95
2022-09-23T16:28:37.293Z,3.58
2022-09-23T16:31:04.284Z,1.98
2022-09-23T16:33:31.113Z,1.98
2022-09-23T16:35:58.796Z,2.67
2022-09-23T16:38:25.465Z,1.58
2022-09-23T16:40:52.475Z,1.40
2022-09-23T16:43:19.177Z,1.30
2022-09-23T16:45:45.992Z,1.45
2022-09-23T16:48:12.865Z,1.48
2022-09-23T16:50:39.573Z,1.80
2022-09-23T16:53:06.406Z,1.15
2022-09-23T16:55:33.121Z,1.85
2022-09-23T16:57:59.834Z,1.40
2022-09-23T17:00:26.709Z,1.92
2022-09-23T17:02:53.486Z,1.50
2022-09-23T17:05:20.295Z,1.55
2022-09-23T17:07:46.977Z,2.22
2022-09-23T17:10:13.777Z,2.85
2022-09-23T17:12:40.596Z,1.50
2022-09-23T17:15:08.598Z,1.40
2022-09-23T17:17:36.377Z,2.72
2022-09-23T17:20:05.375Z,1.67
2022-09-23T17:22:34.637Z,3.17
2022-09-23T17:25:01.952Z,1.92
2022-09-23T17:27:28.684Z,1.90
2022-09-23T17:29:55.638Z,2.50
2022-09-23T17:32:22.341Z,2.10
2022-09-23T17:34:49.259Z,3.05
2022-09-23T17:37:16.066Z,1.98
2022-09-23T17:39:43.009Z,2.17
2022-09-23T17:42:09.829Z,3.15
2022-09-23T17:44:36.558Z,3.83
2022-09-23T17:47:03.421Z,3.20
2022-09-23T17:49:30.182Z,3.63
2022-09-23T17:51:56.941Z,5.32
2022-09-23T17:54:23.712Z,4.35
2022-09-23T17:56:50.502Z,3.60
2022-09-23T17:59:17.268Z,4.35
2022-09-23T18:01:44.236Z,3.55
2022-09-23T18:04:11.072Z,4.63
2022-09-23T18:06:38.024Z,4.60
2022-09-23T18:09:06.991Z,4.78
2022-09-23T18:11:36.551Z,4.45
2022-09-23T18:14:05.747Z,3.70
2022-09-23T18:16:37.842Z,5.70
2022-09-23T18:19:05.105Z,4.75
2022-09-23T18:21:34.476Z,6.35
2022-09-23T18:26:48.740Z,4.55
2022-09-23T18:29:16.060Z,5.50
2022-09-23T18:31:43.652Z,5.85
2022-09-23T18:34:13.155Z,6.45
2022-09-23T18:36:40.266Z,5.25
2022-09-23T18:39:07.077Z,6.28
2022-09-23T18:41:34.985Z,5.07
2022-09-23T18:44:02.866Z,5.00
2022-09-23T18:46:31.147Z,5.45
2022-09-23T18:48:59.291Z,5.35
2022-09-23T18:51:26.979Z,6.82
2022-09-23T18:53:54.020Z,4.37
2022-09-23T18:56:20.758Z,4.82
2022-09-23T18:58:49.239Z,4.68
2022-09-23T19:01:16.664Z,4.00
2022-09-23T19:03:43.768Z,5.15
2022-09-23T19:06:14.338Z,4.10
2022-09-23T19:08:44.675Z,6.30
2022-09-23T19:11:13.384Z,6.32
2022-09-23T19:13:40.974Z,3.75
2022-09-23T19:16:10.921Z,5.03
2022-09-23T19:18:39.722Z,5.90
2022-09-23T19:21:11.884Z,5.18
2022-09-23T19:23:40.140Z,5.95
2022-09-23T19:26:09.866Z,6.90
2022-09-23T19:28:37.693Z,4.30
2022-09-23T19:31:12.847Z,5.53
2022-09-23T19:33:39.714Z,5.97
2022-09-23T19:36:06.935Z,4.03
2022-09-23T19:38:33.704Z,4.97
2022-09-23T19:41:05.266Z,4.68
2022-09-23T19:43:32.264Z,4.50
2022-09-23T19:45:59.064Z,4.05
2022-09-23T19:48:25.815Z,5.20
2022-09-23T19:50:52.654Z,6.78
2022-09-23T19:53:19.635Z,5.57
2022-09-23T19:55:46.610Z,6.10
2022-09-23T19:58:13.424Z,3.92
2022-09-23T20:00:40.815Z,4.50
2022-09-23T20:03:09.158Z,4.03
2022-09-23T20:05:35.947Z,5.10
2022-09-23T20:08:05.378Z,5.40
2022-09-23T20:10:33.066Z,4.25
2022-09-23T20:12:59.919Z,5.22
2022-09-23T20:15:26.676Z,4.13
2022-09-23T20:17:53.486Z,3.83
2022-09-23T20:20:20.576Z,15.77
2022-09-23T20:22:47.350Z,13.35
2022-09-23T20:25:14.240Z,8.25
2022-09-23T20:27:40.983Z,12.05
2022-09-23T20:30:08.360Z,14.63
2022-09-23T20:32:35.245Z,13.30
2022-09-23T20:35:02.038Z,15.18
2022-09-23T20:37:28.859Z,16.05
2022-09-23T20:39:55.837Z,16.75
2022-09-23T20:42:22.622Z,14.55
2022-09-23T20:44:49.888Z,14.90
2022-09-23T20:47:17.970Z,15.25
2022-09-23T20:49:46.047Z,20.35
2022-09-23T20:52:17.610Z,18.38
2022-09-23T20:54:44.403Z,16.90
2022-09-23T20:57:12.928Z,15.57
2022-09-23T20:59:40.396Z,14.77
2022-09-23T21:02:08.342Z,18.02
2022-09-23T21:04:35.119Z,14.57
2022-09-23T21:07:02.269Z,17.27
2022-09-23T21:09:29.900Z,12.67
2022-09-23T21:11:57.360Z,13.57
2022-09-23T21:14:24.211Z,13.77
2022-09-23T21:16:51.401Z,13.00
2022-09-23T21:19:18.613Z,13.45
2022-09-23T21:21:45.661Z,10.63
2022-09-23T21:24:43.762Z,9.98
2022-09-23T21:26:59.342Z,10.77
2022-09-23T21:29:26.123Z,9.40
2022-09-23T21:31:52.958Z,9.23
2022-09-23T21:34:19.823Z,12.33
2022-09-23T21:36:47.824Z,12.27
2022-09-23T21:39:14.568Z,10.60
2022-09-23T21:41:41.499Z,11.70
2022-09-23T21:44:08.525Z,10.57
2022-09-23T21:46:36.962Z,9.83
2022-09-23T21:49:04.324Z,9.18
2022-09-23T21:51:37.222Z,12.00
2022-09-23T21:54:05.008Z,10.00
2022-09-23T21:56:32.883Z,10.25
2022-09-23T21:58:59.635Z,9.70
2022-09-23T22:01:31.735Z,9.20
2022-09-23T22:04:01.595Z,10.88
2022-09-23T22:06:28.886Z,10.73
2022-09-23T22:09:01.385Z,7.13
2022-09-23T22:11:31.535Z,9.30
2022-09-23T22:14:00.222Z,7.75
2022-09-23T22:16:28.593Z,8.25
2022-09-23T22:18:57.516Z,9.15
2022-09-23T22:21:26.592Z,7.78
2022-09-23T22:23:55.247Z,8.07
2022-09-23T22:26:22.028Z,7.50
2022-09-23T22:28:48.946Z,6.90
2022-09-23T22:31:15.992Z,6.03
2022-09-23T22:33:42.812Z,4.32
2022-09-23T22:36:09.543Z,6.43
2022-09-23T22:38:36.311Z,6.13
2022-09-23T22:41:03.444Z,5.32
2022-09-23T22:43:33.231Z,5.20
2022-09-23T22:45:59.994Z,5.13
2022-09-23T22:48:26.696Z,5.07
2022-09-23T22:50:53.660Z,4.78
2022-09-23T22:53:20.389Z,4.97
2022-09-23T22:55:57.739Z,5.85
2022-09-23T22:58:32.203Z,4.90
2022-09-23T23:00:59.750Z,3.93
2022-09-23T23:03:26.654Z,5.97
2022-09-23T23:05:54.135Z,6.13
2022-09-23T23:08:21.301Z,5.55
2022-09-23T23:10:48.089Z,4.50
2022-09-23T23:13:14.921Z,5.30
2022-09-23T23:15:41.754Z,5.22
2022-09-23T23:18:08.719Z,6.05
2022-09-23T23:20:35.525Z,5.30
2022-09-23T23:23:02.419Z,5.80
2022-09-23T23:25:29.680Z,6.00
2022-09-23T23:27:56.720Z,6.53
2022-09-23T23:30:24.182Z,5.00
2022-09-23T23:32:51.008Z,6.72
2022-09-23T23:35:17.794Z,5.85
2022-09-23T23:37:44.613Z,6.63
2022-09-23T23:40:11.444Z,6.35
2022-09-23T23:42:38.268Z,6.22
2022-09-23T23:45:05.592Z,5.63
2022-09-23T23:47:32.452Z,5.93
2022-09-23T23:49:59.272Z,5.97
2022-09-23T23:52:26.064Z,6.00
2022-09-23T23:54:52.794Z,5.93
2022-09-23T23:57:19.565Z,6.43
2022-09-23T23:59:46.313Z,5.72
